sensor_id;sensor_type;location;lat;lon;timestamp;P1;durP1;ratioP1;P2;durP2;ratioP2
56653;SDS011;45096;52.302;4.634;2023-05-28T00:02:16;8.77;;;4.85;;
56653;SDS011;45096;52.302;4.634;2023-05-28T00:04:42;11.85;;;4.70;;
56653;SDS011;45096;52.302;4.634;2023-05-28T00:07:08;6.55;;;4.35;;
56653;SDS011;45096;52.302;4.634;2023-05-28T00:09:33;6.47;;;3.85;;
56653;SDS011;45096;52.302;4.634;2023-05-28T00:11:59;10.90;;;4.57;;
56653;SDS011;45096;52.302;4.634;2023-05-28T00:14:24;7.25;;;4.13;;
56653;SDS011;45096;52.302;4.634;2023-05-28T00:16:49;8.38;;;4.22;;
56653;SDS011;45096;52.302;4.634;2023-05-28T00:19:15;7.07;;;4.25;;
56653;SDS011;45096;52.302;4.634;2023-05-28T00:21:42;8.85;;;4.82;;
56653;SDS011;45096;52.302;4.634;2023-05-28T00:24:07;9.18;;;4.22;;
56653;SDS011;45096;52.302;4.634;2023-05-28T00:26:33;9.35;;;4.35;;
56653;SDS011;45096;52.302;4.634;2023-05-28T00:28:58;6.05;;;4.40;;
56653;SDS011;45096;52.302;4.634;2023-05-28T00:31:23;8.25;;;4.07;;
56653;SDS011;45096;52.302;4.634;2023-05-28T00:33:49;9.70;;;4.75;;
56653;SDS011;45096;52.302;4.634;2023-05-28T00:36:14;7.20;;;4.28;;
56653;SDS011;45096;52.302;4.634;2023-05-28T00:38:41;9.88;;;4.80;;
56653;SDS011;45096;52.302;4.634;2023-05-28T00:41:07;9.85;;;4.65;;
56653;SDS011;45096;52.302;4.634;2023-05-28T00:43:32;6.82;;;4.07;;
56653;SDS011;45096;52.302;4.634;2023-05-28T00:45:59;6.72;;;4.82;;
56653;SDS011;45096;52.302;4.634;2023-05-28T00:48:25;9.60;;;3.92;;
56653;SDS011;45096;52.302;4.634;2023-05-28T00:50:50;8.55;;;4.43;;
56653;SDS011;45096;52.302;4.634;2023-05-28T00:53:16;7.72;;;4.18;;
56653;SDS011;45096;52.302;4.634;2023-05-28T00:55:43;9.88;;;4.50;;
56653;SDS011;45096;52.302;4.634;2023-05-28T00:58:09;7.72;;;4.10;;
56653;SDS011;45096;52.302;4.634;2023-05-28T01:00:35;8.57;;;4.15;;
56653;SDS011;45096;52.302;4.634;2023-05-28T01:03:01;10.98;;;4.88;;
56653;SDS011;45096;52.302;4.634;2023-05-28T01:05:26;10.38;;;5.07;;
56653;SDS011;45096;52.302;4.634;2023-05-28T01:07:52;8.55;;;4.35;;
56653;SDS011;45096;52.302;4.634;2023-05-28T01:10:17;9.02;;;4.93;;
56653;SDS011;45096;52.302;4.634;2023-05-28T01:12:44;5.97;;;4.15;;
56653;SDS011;45096;52.302;4.634;2023-05-28T01:15:10;9.52;;;4.65;;
56653;SDS011;45096;52.302;4.634;2023-05-28T01:17:36;10.32;;;4.30;;
56653;SDS011;45096;52.302;4.634;2023-05-28T01:20:01;10.18;;;5.57;;
56653;SDS011;45096;52.302;4.634;2023-05-28T01:22:28;8.32;;;4.38;;
56653;SDS011;45096;52.302;4.634;2023-05-28T01:24:55;10.55;;;3.95;;
56653;SDS011;45096;52.302;4.634;2023-05-28T01:27:21;7.05;;;4.75;;
56653;SDS011;45096;52.302;4.634;2023-05-28T01:29:46;9.38;;;4.60;;
56653;SDS011;45096;52.302;4.634;2023-05-28T01:32:12;9.40;;;4.20;;
56653;SDS011;45096;52.302;4.634;2023-05-28T01:34:37;10.18;;;4.55;;
56653;SDS011;45096;52.302;4.634;2023-05-28T01:37:03;6.47;;;4.20;;
56653;SDS011;45096;52.302;4.634;2023-05-28T01:39:33;4.50;;;3.58;;
56653;SDS011;45096;52.302;4.634;2023-05-28T01:42:01;7.10;;;4.30;;
56653;SDS011;45096;52.302;4.634;2023-05-28T01:44:28;8.73;;;3.85;;
56653;SDS011;45096;52.302;4.634;2023-05-28T01:46:54;10.20;;;4.68;;
56653;SDS011;45096;52.302;4.634;2023-05-28T01:49:20;8.15;;;4.00;;
56653;SDS011;45096;52.302;4.634;2023-05-28T01:51:46;6.10;;;4.10;;
56653;SDS011;45096;52.302;4.634;2023-05-28T01:54:11;8.75;;;4.25;;
56653;SDS011;45096;52.302;4.634;2023-05-28T01:56:36;3.92;;;3.33;;
56653;SDS011;45096;52.302;4.634;2023-05-28T01:59:03;5.93;;;4.47;;
56653;SDS011;45096;52.302;4.634;2023-05-28T02:01:29;10.45;;;4.25;;
56653;SDS011;45096;52.302;4.634;2023-05-28T02:03:56;8.93;;;4.35;;
56653;SDS011;45096;52.302;4.634;2023-05-28T02:06:21;8.88;;;5.10;;
56653;SDS011;45096;52.302;4.634;2023-05-28T02:08:47;7.25;;;4.72;;
56653;SDS011;45096;52.302;4.634;2023-05-28T02:11:12;12.05;;;4.40;;
56653;SDS011;45096;52.302;4.634;2023-05-28T02:13:38;8.50;;;4.05;;
56653;SDS011;45096;52.302;4.634;2023-05-28T02:16:05;10.02;;;4.32;;
56653;SDS011;45096;52.302;4.634;2023-05-28T02:18:30;9.48;;;3.95;;
56653;SDS011;45096;52.302;4.634;2023-05-28T02:20:56;9.38;;;4.05;;
56653;SDS011;45096;52.302;4.634;2023-05-28T02:23:21;6.88;;;4.45;;
56653;SDS011;45096;52.302;4.634;2023-05-28T02:25:46;7.47;;;4.50;;
56653;SDS011;45096;52.302;4.634;2023-05-28T02:28:12;6.50;;;4.18;;
56653;SDS011;45096;52.302;4.634;2023-05-28T02:30:37;8.27;;;4.32;;
56653;SDS011;45096;52.302;4.634;2023-05-28T02:33:04;9.00;;;5.20;;
56653;SDS011;45096;52.302;4.634;2023-05-28T02:35:30;8.55;;;3.92;;
56653;SDS011;45096;52.302;4.634;2023-05-28T02:37:56;7.93;;;4.47;;
56653;SDS011;45096;52.302;4.634;2023-05-28T02:40:21;8.98;;;4.03;;
56653;SDS011;45096;52.302;4.634;2023-05-28T02:42:47;5.97;;;3.92;;
56653;SDS011;45096;52.302;4.634;2023-05-28T02:45:12;9.63;;;4.20;;
56653;SDS011;45096;52.302;4.634;2023-05-28T02:47:38;10.00;;;4.78;;
56653;SDS011;45096;52.302;4.634;2023-05-28T02:50:05;9.60;;;3.97;;
56653;SDS011;45096;52.302;4.634;2023-05-28T02:52:31;8.85;;;4.18;;
56653;SDS011;45096;52.302;4.634;2023-05-28T02:54:57;9.88;;;4.72;;
56653;SDS011;45096;52.302;4.634;2023-05-28T02:57:22;6.47;;;3.83;;
56653;SDS011;45096;52.302;4.634;2023-05-28T02:59:47;6.72;;;3.65;;
56653;SDS011;45096;52.302;4.634;2023-05-28T03:02:13;7.00;;;3.90;;
56653;SDS011;45096;52.302;4.634;2023-05-28T03:04:38;6.40;;;3.90;;
56653;SDS011;45096;52.302;4.634;2023-05-28T03:07:05;10.55;;;4.20;;
56653;SDS011;45096;52.302;4.634;2023-05-28T03:09:30;6.30;;;4.47;;
56653;SDS011;45096;52.302;4.634;2023-05-28T03:11:56;9.05;;;4.10;;
56653;SDS011;45096;52.302;4.634;2023-05-28T03:14:21;6.63;;;3.65;;
56653;SDS011;45096;52.302;4.634;2023-05-28T03:16:47;5.03;;;4.20;;
56653;SDS011;45096;52.302;4.634;2023-05-28T03:19:12;8.75;;;3.90;;
56653;SDS011;45096;52.302;4.634;2023-05-28T03:21:38;8.55;;;3.55;;
56653;SDS011;45096;52.302;4.634;2023-05-28T03:24:05;5.38;;;3.90;;
56653;SDS011;45096;52.302;4.634;2023-05-28T03:26:31;8.50;;;4.18;;
56653;SDS011;45096;52.302;4.634;2023-05-28T03:28:56;7.47;;;3.83;;
56653;SDS011;45096;52.302;4.634;2023-05-28T03:31:27;9.52;;;4.43;;
56653;SDS011;45096;52.302;4.634;2023-05-28T03:33:53;6.68;;;4.03;;
56653;SDS011;45096;52.302;4.634;2023-05-28T03:36:18;9.73;;;4.22;;
56653;SDS011;45096;52.302;4.634;2023-05-28T03:38:44;5.47;;;4.10;;
56653;SDS011;45096;52.302;4.634;2023-05-28T03:41:10;6.43;;;4.35;;
56653;SDS011;45096;52.302;4.634;2023-05-28T03:43:36;5.85;;;3.67;;
56653;SDS011;45096;52.302;4.634;2023-05-28T03:46:01;6.57;;;4.00;;
56653;SDS011;45096;52.302;4.634;2023-05-28T03:48:27;8.05;;;4.03;;
56653;SDS011;45096;52.302;4.634;2023-05-28T03:50:52;8.30;;;4.22;;
56653;SDS011;45096;52.302;4.634;2023-05-28T03:53:18;6.53;;;4.07;;
56653;SDS011;45096;52.302;4.634;2023-05-28T03:55:43;6.45;;;4.07;;
56653;SDS011;45096;52.302;4.634;2023-05-28T03:58:10;8.05;;;3.92;;
56653;SDS011;45096;52.302;4.634;2023-05-28T04:00:35;7.75;;;4.13;;
56653;SDS011;45096;52.302;4.634;2023-05-28T04:03:01;7.97;;;4.35;;
56653;SDS011;45096;52.302;4.634;2023-05-28T04:05:26;7.05;;;4.43;;
56653;SDS011;45096;52.302;4.634;2023-05-28T04:07:51;8.20;;;4.03;;
56653;SDS011;45096;52.302;4.634;2023-05-28T04:10:17;7.00;;;4.28;;
56653;SDS011;45096;52.302;4.634;2023-05-28T04:12:42;9.77;;;4.68;;
56653;SDS011;45096;52.302;4.634;2023-05-28T04:15:10;7.88;;;4.43;;
56653;SDS011;45096;52.302;4.634;2023-05-28T04:17:35;9.88;;;5.38;;
56653;SDS011;45096;52.302;4.634;2023-05-28T04:20:00;7.43;;;4.18;;
56653;SDS011;45096;52.302;4.634;2023-05-28T04:22:26;8.07;;;4.97;;
56653;SDS011;45096;52.302;4.634;2023-05-28T04:24:51;6.63;;;4.38;;
56653;SDS011;45096;52.302;4.634;2023-05-28T04:27:17;8.95;;;5.28;;
56653;SDS011;45096;52.302;4.634;2023-05-28T04:29:42;7.05;;;4.28;;
56653;SDS011;45096;52.302;4.634;2023-05-28T04:32:09;10.95;;;5.13;;
56653;SDS011;45096;52.302;4.634;2023-05-28T04:34:35;8.07;;;4.07;;
56653;SDS011;45096;52.302;4.634;2023-05-28T04:37:00;7.60;;;4.40;;
56653;SDS011;45096;52.302;4.634;2023-05-28T04:39:25;6.10;;;4.43;;
56653;SDS011;45096;52.302;4.634;2023-05-28T04:41:51;9.90;;;5.40;;
56653;SDS011;45096;52.302;4.634;2023-05-28T04:44:16;8.10;;;4.40;;
56653;SDS011;45096;52.302;4.634;2023-05-28T04:46:42;6.07;;;4.40;;
56653;SDS011;45096;52.302;4.634;2023-05-28T04:49:09;6.10;;;4.30;;
56653;SDS011;45096;52.302;4.634;2023-05-28T04:51:34;11.52;;;5.35;;
56653;SDS011;45096;52.302;4.634;2023-05-28T04:54:00;10.25;;;4.90;;
56653;SDS011;45096;52.302;4.634;2023-05-28T04:56:25;8.15;;;5.15;;
56653;SDS011;45096;52.302;4.634;2023-05-28T04:58:50;8.25;;;4.63;;
56653;SDS011;45096;52.302;4.634;2023-05-28T05:01:16;10.63;;;4.78;;
56653;SDS011;45096;52.302;4.634;2023-05-28T05:03:41;7.85;;;4.95;;
56653;SDS011;45096;52.302;4.634;2023-05-28T05:06:08;5.75;;;4.35;;
56653;SDS011;45096;52.302;4.634;2023-05-28T05:08:34;5.53;;;4.30;;
56653;SDS011;45096;52.302;4.634;2023-05-28T05:10:59;8.63;;;5.38;;
56653;SDS011;45096;52.302;4.634;2023-05-28T05:13:25;8.40;;;4.90;;
56653;SDS011;45096;52.302;4.634;2023-05-28T05:15:50;8.57;;;4.25;;
56653;SDS011;45096;52.302;4.634;2023-05-28T05:18:16;10.38;;;5.32;;
56653;SDS011;45096;52.302;4.634;2023-05-28T05:20:41;12.48;;;4.68;;
56653;SDS011;45096;52.302;4.634;2023-05-28T05:23:08;10.32;;;4.75;;
56653;SDS011;45096;52.302;4.634;2023-05-28T05:25:34;7.80;;;4.93;;
56653;SDS011;45096;52.302;4.634;2023-05-28T05:27:59;7.85;;;4.47;;
56653;SDS011;45096;52.302;4.634;2023-05-28T05:30:24;9.07;;;4.63;;
56653;SDS011;45096;52.302;4.634;2023-05-28T05:32:50;7.55;;;4.60;;
56653;SDS011;45096;52.302;4.634;2023-05-28T05:35:15;8.82;;;5.22;;
56653;SDS011;45096;52.302;4.634;2023-05-28T05:37:41;11.70;;;5.72;;
56653;SDS011;45096;52.302;4.634;2023-05-28T05:40:08;12.43;;;6.13;;
56653;SDS011;45096;52.302;4.634;2023-05-28T05:42:34;18.67;;;6.40;;
56653;SDS011;45096;52.302;4.634;2023-05-28T05:44:59;10.60;;;5.65;;
56653;SDS011;45096;52.302;4.634;2023-05-28T05:47:25;13.18;;;6.32;;
56653;SDS011;45096;52.302;4.634;2023-05-28T05:49:50;14.13;;;5.97;;
56653;SDS011;45096;52.302;4.634;2023-05-28T05:52:16;11.52;;;5.68;;
56653;SDS011;45096;52.302;4.634;2023-05-28T05:54:41;13.80;;;6.38;;
56653;SDS011;45096;52.302;4.634;2023-05-28T05:57:08;9.88;;;5.78;;
56653;SDS011;45096;52.302;4.634;2023-05-28T05:59:33;11.48;;;5.80;;
56653;SDS011;45096;52.302;4.634;2023-05-28T06:01:59;10.20;;;5.72;;
56653;SDS011;45096;52.302;4.634;2023-05-28T06:04:24;9.63;;;5.47;;
56653;SDS011;45096;52.302;4.634;2023-05-28T06:06:49;10.57;;;6.05;;
56653;SDS011;45096;52.302;4.634;2023-05-28T06:09:15;10.20;;;6.00;;
56653;SDS011;45096;52.302;4.634;2023-05-28T06:11:40;10.43;;;5.70;;
56653;SDS011;45096;52.302;4.634;2023-05-28T06:14:07;13.73;;;6.72;;
56653;SDS011;45096;52.302;4.634;2023-05-28T06:16:33;11.40;;;6.43;;
56653;SDS011;45096;52.302;4.634;2023-05-28T06:18:58;9.85;;;5.22;;
56653;SDS011;45096;52.302;4.634;2023-05-28T06:21:23;13.20;;;5.78;;
56653;SDS011;45096;52.302;4.634;2023-05-28T06:23:49;11.20;;;5.82;;
56653;SDS011;45096;52.302;4.634;2023-05-28T06:26:14;9.00;;;5.72;;
56653;SDS011;45096;52.302;4.634;2023-05-28T06:28:40;11.57;;;5.50;;
56653;SDS011;45096;52.302;4.634;2023-05-28T06:31:07;9.73;;;5.15;;
56653;SDS011;45096;52.302;4.634;2023-05-28T06:33:32;10.02;;;5.82;;
56653;SDS011;45096;52.302;4.634;2023-05-28T06:35:57;9.85;;;4.80;;
56653;SDS011;45096;52.302;4.634;2023-05-28T06:38:23;9.02;;;5.38;;
56653;SDS011;45096;52.302;4.634;2023-05-28T06:40:48;13.43;;;5.93;;
56653;SDS011;45096;52.302;4.634;2023-05-28T06:43:14;10.35;;;5.78;;
56653;SDS011;45096;52.302;4.634;2023-05-28T06:45:39;8.82;;;5.53;;
56653;SDS011;45096;52.302;4.634;2023-05-28T06:48:06;11.30;;;5.32;;
56653;SDS011;45096;52.302;4.634;2023-05-28T06:50:32;8.45;;;6.18;;
56653;SDS011;45096;52.302;4.634;2023-05-28T06:52:57;11.48;;;5.95;;
56653;SDS011;45096;52.302;4.634;2023-05-28T06:55:23;11.98;;;5.88;;
56653;SDS011;45096;52.302;4.634;2023-05-28T06:57:48;9.02;;;5.47;;
56653;SDS011;45096;52.302;4.634;2023-05-28T07:00:14;10.10;;;5.10;;
56653;SDS011;45096;52.302;4.634;2023-05-28T07:02:40;9.02;;;5.45;;
56653;SDS011;45096;52.302;4.634;2023-05-28T07:05:07;11.45;;;5.22;;
56653;SDS011;45096;52.302;4.634;2023-05-28T07:07:33;12.35;;;5.93;;
56653;SDS011;45096;52.302;4.634;2023-05-28T07:09:58;10.57;;;5.70;;
56653;SDS011;45096;52.302;4.634;2023-05-28T07:12:24;8.02;;;5.35;;
56653;SDS011;45096;52.302;4.634;2023-05-28T07:14:49;8.23;;;6.03;;
56653;SDS011;45096;52.302;4.634;2023-05-28T07:17:15;14.05;;;6.63;;
56653;SDS011;45096;52.302;4.634;2023-05-28T07:19:40;13.93;;;5.80;;
56653;SDS011;45096;52.302;4.634;2023-05-28T07:22:07;11.18;;;5.18;;
56653;SDS011;45096;52.302;4.634;2023-05-28T07:24:32;12.77;;;5.88;;
56653;SDS011;45096;52.302;4.634;2023-05-28T07:26:58;9.63;;;6.22;;
56653;SDS011;45096;52.302;4.634;2023-05-28T07:29:25;12.02;;;5.78;;
56653;SDS011;45096;52.302;4.634;2023-05-28T07:31:51;9.40;;;5.60;;
56653;SDS011;45096;52.302;4.634;2023-05-28T07:34:16;10.65;;;5.15;;
56653;SDS011;45096;52.302;4.634;2023-05-28T07:36:42;10.07;;;5.13;;
56653;SDS011;45096;52.302;4.634;2023-05-28T07:39:08;9.02;;;5.40;;
56653;SDS011;45096;52.302;4.634;2023-05-28T07:41:34;11.40;;;6.15;;
56653;SDS011;45096;52.302;4.634;2023-05-28T07:43:59;8.57;;;5.40;;
56653;SDS011;45096;52.302;4.634;2023-05-28T07:46:25;8.48;;;5.30;;
56653;SDS011;45096;52.302;4.634;2023-05-28T07:48:50;8.60;;;5.35;;
56653;SDS011;45096;52.302;4.634;2023-05-28T07:51:16;8.18;;;5.57;;
56653;SDS011;45096;52.302;4.634;2023-05-28T07:53:41;9.30;;;5.60;;
56653;SDS011;45096;52.302;4.634;2023-05-28T07:56:08;8.05;;;5.15;;
56653;SDS011;45096;52.302;4.634;2023-05-28T07:58:34;11.55;;;5.55;;
56653;SDS011;45096;52.302;4.634;2023-05-28T08:00:59;12.52;;;5.57;;
56653;SDS011;45096;52.302;4.634;2023-05-28T08:03:24;10.90;;;5.38;;
56653;SDS011;45096;52.302;4.634;2023-05-28T08:05:50;11.20;;;6.13;;
56653;SDS011;45096;52.302;4.634;2023-05-28T08:08:15;7.38;;;4.93;;
56653;SDS011;45096;52.302;4.634;2023-05-28T08:10:41;12.07;;;5.72;;
56653;SDS011;45096;52.302;4.634;2023-05-28T08:13:07;14.50;;;5.68;;
56653;SDS011;45096;52.302;4.634;2023-05-28T08:15:33;11.57;;;5.90;;
56653;SDS011;45096;52.302;4.634;2023-05-28T08:17:59;10.30;;;5.22;;
56653;SDS011;45096;52.302;4.634;2023-05-28T08:20:24;11.23;;;5.50;;
56653;SDS011;45096;52.302;4.634;2023-05-28T08:22:50;8.27;;;4.93;;
56653;SDS011;45096;52.302;4.634;2023-05-28T08:25:15;11.75;;;5.40;;
56653;SDS011;45096;52.302;4.634;2023-05-28T08:27:40;17.05;;;6.75;;
56653;SDS011;45096;52.302;4.634;2023-05-28T08:30:08;11.10;;;5.97;;
56653;SDS011;45096;52.302;4.634;2023-05-28T08:32:34;12.85;;;5.75;;
56653;SDS011;45096;52.302;4.634;2023-05-28T08:34:59;8.40;;;4.65;;
56653;SDS011;45096;52.302;4.634;2023-05-28T08:37:24;15.00;;;6.43;;
56653;SDS011;45096;52.302;4.634;2023-05-28T08:39:50;10.52;;;5.32;;
56653;SDS011;45096;52.302;4.634;2023-05-28T08:42:15;10.95;;;5.97;;
56653;SDS011;45096;52.302;4.634;2023-05-28T08:44:41;12.07;;;5.50;;
56653;SDS011;45096;52.302;4.634;2023-05-28T08:47:08;13.40;;;5.78;;
56653;SDS011;45096;52.302;4.634;2023-05-28T08:49:39;10.73;;;4.90;;
56653;SDS011;45096;52.302;4.634;2023-05-28T08:52:08;14.02;;;4.65;;
56653;SDS011;45096;52.302;4.634;2023-05-28T08:54:34;10.68;;;4.78;;
56653;SDS011;45096;52.302;4.634;2023-05-28T08:56:59;10.48;;;5.20;;
56653;SDS011;45096;52.302;4.634;2023-05-28T08:59:25;7.45;;;4.78;;
56653;SDS011;45096;52.302;4.634;2023-05-28T09:01:51;11.45;;;5.57;;
56653;SDS011;45096;52.302;4.634;2023-05-28T09:04:18;10.43;;;5.50;;
56653;SDS011;45096;52.302;4.634;2023-05-28T09:06:43;10.07;;;5.15;;
56653;SDS011;45096;52.302;4.634;2023-05-28T09:09:08;9.77;;;6.25;;
56653;SDS011;45096;52.302;4.634;2023-05-28T09:11:34;9.73;;;5.18;;
56653;SDS011;45096;52.302;4.634;2023-05-28T09:14:02;8.27;;;5.38;;
56653;SDS011;45096;52.302;4.634;2023-05-28T09:16:33;9.20;;;5.70;;
56653;SDS011;45096;52.302;4.634;2023-05-28T09:19:02;12.13;;;6.25;;
56653;SDS011;45096;52.302;4.634;2023-05-28T09:21:29;15.10;;;6.72;;
56653;SDS011;45096;52.302;4.634;2023-05-28T09:23:54;11.23;;;5.75;;
56653;SDS011;45096;52.302;4.634;2023-05-28T09:26:20;16.70;;;5.95;;
56653;SDS011;45096;52.302;4.634;2023-05-28T09:28:45;17.52;;;6.35;;
56653;SDS011;45096;52.302;4.634;2023-05-28T09:31:11;11.65;;;5.90;;
56653;SDS011;45096;52.302;4.634;2023-05-28T09:33:37;9.38;;;5.70;;
56653;SDS011;45096;52.302;4.634;2023-05-28T09:36:06;12.68;;;5.95;;
56653;SDS011;45096;52.302;4.634;2023-05-28T09:38:38;12.13;;;6.15;;
56653;SDS011;45096;52.302;4.634;2023-05-28T09:41:04;14.07;;;5.55;;
56653;SDS011;45096;52.302;4.634;2023-05-28T09:43:29;11.80;;;5.82;;
56653;SDS011;45096;52.302;4.634;2023-05-28T09:46:05;14.50;;;5.35;;
56653;SDS011;45096;52.302;4.634;2023-05-28T09:48:31;15.30;;;5.80;;
56653;SDS011;45096;52.302;4.634;2023-05-28T09:50:56;11.73;;;5.22;;
56653;SDS011;45096;52.302;4.634;2023-05-28T09:53:23;9.88;;;5.35;;
56653;SDS011;45096;52.302;4.634;2023-05-28T09:55:50;10.45;;;6.13;;
56653;SDS011;45096;52.302;4.634;2023-05-28T09:58:15;12.20;;;5.72;;
56653;SDS011;45096;52.302;4.634;2023-05-28T10:00:42;15.35;;;6.57;;
56653;SDS011;45096;52.302;4.634;2023-05-28T10:03:12;14.55;;;6.60;;
56653;SDS011;45096;52.302;4.634;2023-05-28T10:05:39;9.63;;;6.32;;
56653;SDS011;45096;52.302;4.634;2023-05-28T10:08:07;18.27;;;6.55;;
56653;SDS011;45096;52.302;4.634;2023-05-28T10:10:36;14.98;;;6.38;;
56653;SDS011;45096;52.302;4.634;2023-05-28T10:13:05;12.13;;;6.38;;
56653;SDS011;45096;52.302;4.634;2023-05-28T10:15:31;13.68;;;6.13;;
56653;SDS011;45096;52.302;4.634;2023-05-28T10:17:57;11.52;;;6.90;;
56653;SDS011;45096;52.302;4.634;2023-05-28T10:20:22;15.80;;;6.70;;
56653;SDS011;45096;52.302;4.634;2023-05-28T10:22:48;12.85;;;7.07;;
56653;SDS011;45096;52.302;4.634;2023-05-28T10:25:13;10.50;;;5.68;;
56653;SDS011;45096;52.302;4.634;2023-05-28T10:27:43;14.95;;;6.22;;
56653;SDS011;45096;52.302;4.634;2023-05-28T10:30:11;12.40;;;6.05;;
56653;SDS011;45096;52.302;4.634;2023-05-28T10:32:39;10.50;;;5.88;;
56653;SDS011;45096;52.302;4.634;2023-05-28T10:35:05;20.42;;;7.03;;
56653;SDS011;45096;52.302;4.634;2023-05-28T10:37:31;12.45;;;7.18;;
56653;SDS011;45096;52.302;4.634;2023-05-28T10:39:57;11.02;;;5.72;;
56653;SDS011;45096;52.302;4.634;2023-05-28T10:42:24;9.10;;;6.10;;
56653;SDS011;45096;52.302;4.634;2023-05-28T10:44:51;9.98;;;5.82;;
56653;SDS011;45096;52.302;4.634;2023-05-28T10:47:23;13.65;;;6.65;;
56653;SDS011;45096;52.302;4.634;2023-05-28T10:49:59;11.13;;;6.55;;
56653;SDS011;45096;52.302;4.634;2023-05-28T10:52:25;15.25;;;6.78;;
56653;SDS011;45096;52.302;4.634;2023-05-28T10:54:52;9.18;;;5.80;;
56653;SDS011;45096;52.302;4.634;2023-05-28T10:57:18;11.50;;;6.28;;
56653;SDS011;45096;52.302;4.634;2023-05-28T10:59:45;10.88;;;6.15;;
56653;SDS011;45096;52.302;4.634;2023-05-28T11:02:11;12.52;;;5.40;;
56653;SDS011;45096;52.302;4.634;2023-05-28T11:04:38;13.45;;;6.00;;
56653;SDS011;45096;52.302;4.634;2023-05-28T11:07:04;9.05;;;5.45;;
56653;SDS011;45096;52.302;4.634;2023-05-28T11:09:29;12.07;;;6.05;;
56653;SDS011;45096;52.302;4.634;2023-05-28T11:11:57;9.73;;;5.40;;
56653;SDS011;45096;52.302;4.634;2023-05-28T11:14:23;7.65;;;4.75;;
56653;SDS011;45096;52.302;4.634;2023-05-28T11:16:48;13.93;;;5.53;;
56653;SDS011;45096;52.302;4.634;2023-05-28T11:19:14;10.13;;;6.15;;
56653;SDS011;45096;52.302;4.634;2023-05-28T11:24:23;11.35;;;5.57;;
56653;SDS011;45096;52.302;4.634;2023-05-28T11:26:51;12.18;;;5.15;;
56653;SDS011;45096;52.302;4.634;2023-05-28T11:29:17;10.27;;;5.00;;
56653;SDS011;45096;52.302;4.634;2023-05-28T11:31:42;10.20;;;5.28;;
56653;SDS011;45096;52.302;4.634;2023-05-28T11:34:08;9.05;;;4.65;;
56653;SDS011;45096;52.302;4.634;2023-05-28T11:36:37;11.48;;;5.93;;
56653;SDS011;45096;52.302;4.634;2023-05-28T11:39:05;10.07;;;5.07;;
56653;SDS011;45096;52.302;4.634;2023-05-28T11:41:31;11.05;;;5.50;;
56653;SDS011;45096;52.302;4.634;2023-05-28T11:43:56;13.07;;;4.95;;
56653;SDS011;45096;52.302;4.634;2023-05-28T11:46:22;11.40;;;5.22;;
56653;SDS011;45096;52.302;4.634;2023-05-28T11:48:47;9.32;;;4.45;;
56653;SDS011;45096;52.302;4.634;2023-05-28T11:51:13;10.60;;;5.10;;
56653;SDS011;45096;52.302;4.634;2023-05-28T11:53:39;6.55;;;4.72;;
56653;SDS011;45096;52.302;4.634;2023-05-28T11:56:06;9.45;;;5.15;;
56653;SDS011;45096;52.302;4.634;2023-05-28T11:58:33;7.22;;;4.32;;
56653;SDS011;45096;52.302;4.634;2023-05-28T12:01:00;6.45;;;4.53;;
56653;SDS011;45096;52.302;4.634;2023-05-28T12:03:25;7.78;;;4.82;;
56653;SDS011;45096;52.302;4.634;2023-05-28T12:05:51;7.63;;;4.63;;
56653;SDS011;45096;52.302;4.634;2023-05-28T12:08:17;8.68;;;4.53;;
56653;SDS011;45096;52.302;4.634;2023-05-28T12:10:43;9.07;;;4.72;;
56653;SDS011;45096;52.302;4.634;2023-05-28T12:13:11;8.32;;;4.57;;
56653;SDS011;45096;52.302;4.634;2023-05-28T12:15:37;8.40;;;4.70;;
56653;SDS011;45096;52.302;4.634;2023-05-28T12:18:02;9.82;;;5.07;;
56653;SDS011;45096;52.302;4.634;2023-05-28T12:20:28;8.00;;;4.63;;
56653;SDS011;45096;52.302;4.634;2023-05-28T12:23:01;9.15;;;5.68;;
56653;SDS011;45096;52.302;4.634;2023-05-28T12:25:27;7.43;;;4.70;;
56653;SDS011;45096;52.302;4.634;2023-05-28T12:27:52;7.82;;;4.40;;
56653;SDS011;45096;52.302;4.634;2023-05-28T12:30:19;7.45;;;4.75;;
56653;SDS011;45096;52.302;4.634;2023-05-28T12:32:45;7.80;;;4.45;;
56653;SDS011;45096;52.302;4.634;2023-05-28T12:35:10;6.50;;;4.53;;
56653;SDS011;45096;52.302;4.634;2023-05-28T12:37:39;7.88;;;4.20;;
56653;SDS011;45096;52.302;4.634;2023-05-28T12:40:05;7.13;;;4.00;;
56653;SDS011;45096;52.302;4.634;2023-05-28T12:42:31;5.85;;;4.57;;
56653;SDS011;45096;52.302;4.634;2023-05-28T12:44:56;5.47;;;4.05;;
56653;SDS011;45096;52.302;4.634;2023-05-28T12:47:23;6.68;;;4.15;;
56653;SDS011;45096;52.302;4.634;2023-05-28T12:49:49;6.15;;;3.70;;
56653;SDS011;45096;52.302;4.634;2023-05-28T12:52:14;6.93;;;4.18;;
56653;SDS011;45096;52.302;4.634;2023-05-28T12:54:40;6.28;;;4.00;;
56653;SDS011;45096;52.302;4.634;2023-05-28T12:57:05;7.07;;;3.92;;
56653;SDS011;45096;52.302;4.634;2023-05-28T12:59:31;6.50;;;3.88;;
56653;SDS011;45096;52.302;4.634;2023-05-28T13:01:56;7.32;;;4.05;;
56653;SDS011;45096;52.302;4.634;2023-05-28T13:04:23;5.35;;;3.58;;
56653;SDS011;45096;52.302;4.634;2023-05-28T13:06:49;5.07;;;4.13;;
56653;SDS011;45096;52.302;4.634;2023-05-28T13:09:14;5.20;;;4.20;;
56653;SDS011;45096;52.302;4.634;2023-05-28T13:11:40;4.05;;;3.25;;
56653;SDS011;45096;52.302;4.634;2023-05-28T13:14:06;4.18;;;3.53;;
56653;SDS011;45096;52.302;4.634;2023-05-28T13:16:32;5.90;;;3.92;;
56653;SDS011;45096;52.302;4.634;2023-05-28T13:18:57;6.15;;;4.32;;
56653;SDS011;45096;52.302;4.634;2023-05-28T13:21:24;4.85;;;4.25;;
56653;SDS011;45096;52.302;4.634;2023-05-28T13:23:50;7.28;;;4.78;;
56653;SDS011;45096;52.302;4.634;2023-05-28T13:26:16;4.65;;;4.25;;
56653;SDS011;45096;52.302;4.634;2023-05-28T13:28:41;4.70;;;4.30;;
56653;SDS011;45096;52.302;4.634;2023-05-28T13:31:07;6.70;;;4.30;;
56653;SDS011;45096;52.302;4.634;2023-05-28T13:33:32;5.15;;;4.65;;
56653;SDS011;45096;52.302;4.634;2023-05-28T13:35:57;6.15;;;4.55;;
56653;SDS011;45096;52.302;4.634;2023-05-28T13:38:24;5.47;;;4.53;;
56653;SDS011;45096;52.302;4.634;2023-05-28T13:40:50;7.75;;;4.80;;
56653;SDS011;45096;52.302;4.634;2023-05-28T13:43:15;7.50;;;4.53;;
56653;SDS011;45096;52.302;4.634;2023-05-28T13:45:41;6.43;;;4.85;;
56653;SDS011;45096;52.302;4.634;2023-05-28T13:48:06;6.35;;;4.85;;
56653;SDS011;45096;52.302;4.634;2023-05-28T13:50:32;7.32;;;4.70;;
56653;SDS011;45096;52.302;4.634;2023-05-28T13:52:57;7.68;;;4.55;;
56653;SDS011;45096;52.302;4.634;2023-05-28T13:55:24;6.20;;;4.47;;
56653;SDS011;45096;52.302;4.634;2023-05-28T13:57:50;7.78;;;4.70;;
56653;SDS011;45096;52.302;4.634;2023-05-28T14:00:15;5.72;;;3.97;;
56653;SDS011;45096;52.302;4.634;2023-05-28T14:02:41;6.18;;;4.70;;
56653;SDS011;45096;52.302;4.634;2023-05-28T14:05:07;5.30;;;3.60;;
56653;SDS011;45096;52.302;4.634;2023-05-28T14:07:33;4.35;;;3.95;;
56653;SDS011;45096;52.302;4.634;2023-05-28T14:09:58;4.53;;;4.07;;
56653;SDS011;45096;52.302;4.634;2023-05-28T14:12:25;4.00;;;3.63;;
56653;SDS011;45096;52.302;4.634;2023-05-28T14:14:50;4.28;;;3.75;;
56653;SDS011;45096;52.302;4.634;2023-05-28T14:17:16;10.77;;;4.15;;
56653;SDS011;45096;52.302;4.634;2023-05-28T14:19:41;5.60;;;3.63;;
56653;SDS011;45096;52.302;4.634;2023-05-28T14:22:07;4.70;;;3.13;;
56653;SDS011;45096;52.302;4.634;2023-05-28T14:24:33;7.55;;;4.00;;
56653;SDS011;45096;52.302;4.634;2023-05-28T14:26:58;5.90;;;3.80;;
56653;SDS011;45096;52.302;4.634;2023-05-28T14:29:25;6.35;;;3.75;;
56653;SDS011;45096;52.302;4.634;2023-05-28T14:31:51;6.13;;;3.55;;
56653;SDS011;45096;52.302;4.634;2023-05-28T14:34:18;5.95;;;3.58;;
56653;SDS011;45096;52.302;4.634;2023-05-28T14:36:43;5.47;;;3.20;;
56653;SDS011;45096;52.302;4.634;2023-05-28T14:39:09;6.38;;;3.50;;